Pleasant Point, Maine
Current Conditions -  °F | °C
As of 4:00 AM on Wednesday 26 Nov 2014 (Local Time) from CYSJ Reporting Station
Overcast Overcast  
Wind Chill: 36°   Ceiling: 23000
Heat Index: 39°   Visibility: 12mi
Dew Point: 28°   Wind: 5mph
Humidity: 65%   Direction: 270°W
Pressure: 30.1"   Gusts: NA
Location:  44.9831°N, 67.1057°W
Report Text: CYSJ 260900Z 27004KT 12SM OVC230 04/M02 A3010 RMK CI8 SLP195
Loading
Personal Weather Stations






























Interactive Weather Map New forecast layout! Learn more

10-Day Weather Forecast

Advertisements
Track Severe Weather on mobile